sensor_id;sensor_type;location;lat;lon;timestamp;temperature;humidity
23207;DHT22;11773;52.570;13.052;2023-08-07T00:00:08;18.00;99.90
23207;DHT22;11773;52.570;13.052;2023-08-07T00:02:38;17.90;99.90
23207;DHT22;11773;52.570;13.052;2023-08-07T00:05:08;17.90;99.90
23207;DHT22;11773;52.570;13.052;2023-08-07T00:07:37;17.90;99.90
23207;DHT22;11773;52.570;13.052;2023-08-07T00:10:07;17.90;99.90
23207;DHT22;11773;52.570;13.052;2023-08-07T00:12:37;17.90;99.90
23207;DHT22;11773;52.570;13.052;2023-08-07T00:15:07;17.90;99.90
23207;DHT22;11773;52.570;13.052;2023-08-07T00:17:37;17.90;99.90
23207;DHT22;11773;52.570;13.052;2023-08-07T00:20:07;17.90;99.90
23207;DHT22;11773;52.570;13.052;2023-08-07T00:22:37;17.90;99.90
23207;DHT22;11773;52.570;13.052;2023-08-07T00:25:07;17.80;99.90
23207;DHT22;11773;52.570;13.052;2023-08-07T00:27:37;17.80;99.90
23207;DHT22;11773;52.570;13.052;2023-08-07T00:30:07;17.80;99.90
23207;DHT22;11773;52.570;13.052;2023-08-07T00:32:37;17.80;99.90
23207;DHT22;11773;52.570;13.052;2023-08-07T00:35:06;17.80;99.90
23207;DHT22;11773;52.570;13.052;2023-08-07T00:37:36;17.80;99.90
23207;DHT22;11773;52.570;13.052;2023-08-07T00:40:06;17.80;99.90
23207;DHT22;11773;52.570;13.052;2023-08-07T00:42:36;17.80;99.90
23207;DHT22;11773;52.570;13.052;2023-08-07T00:45:06;17.80;99.90
23207;DHT22;11773;52.570;13.052;2023-08-07T00:47:37;17.80;99.90
23207;DHT22;11773;52.570;13.052;2023-08-07T00:50:07;17.80;99.90
23207;DHT22;11773;52.570;13.052;2023-08-07T00:52:39;17.80;99.90
23207;DHT22;11773;52.570;13.052;2023-08-07T00:55:08;17.70;99.90
23207;DHT22;11773;52.570;13.052;2023-08-07T00:57:38;17.70;99.90
23207;DHT22;11773;52.570;13.052;2023-08-07T01:00:08;17.80;99.90
23207;DHT22;11773;52.570;13.052;2023-08-07T01:02:38;17.70;99.90
23207;DHT22;11773;52.570;13.052;2023-08-07T01:05:08;17.80;99.90
23207;DHT22;11773;52.570;13.052;2023-08-07T01:07:38;17.80;99.90
23207;DHT22;11773;52.570;13.052;2023-08-07T01:10:07;17.70;99.90
23207;DHT22;11773;52.570;13.052;2023-08-07T01:12:51;17.80;99.90
23207;DHT22;11773;52.570;13.052;2023-08-07T01:15:25;17.80;99.90
23207;DHT22;11773;52.570;13.052;2023-08-07T01:17:55;17.80;99.90
23207;DHT22;11773;52.570;13.052;2023-08-07T01:20:26;17.70;99.90
23207;DHT22;11773;52.570;13.052;2023-08-07T01:22:55;17.70;99.90
23207;DHT22;11773;52.570;13.052;2023-08-07T01:25:25;17.70;99.90
23207;DHT22;11773;52.570;13.052;2023-08-07T01:28:02;17.70;99.90
23207;DHT22;11773;52.570;13.052;2023-08-07T01:30:44;17.70;99.90
23207;DHT22;11773;52.570;13.052;2023-08-07T01:33:37;17.70;99.90
23207;DHT22;11773;52.570;13.052;2023-08-07T01:36:05;17.70;99.90
23207;DHT22;11773;52.570;13.052;2023-08-07T01:38:36;17.60;99.90
23207;DHT22;11773;52.570;13.052;2023-08-07T01:41:07;17.60;99.90
23207;DHT22;11773;52.570;13.052;2023-08-07T01:43:36;17.60;99.90
23207;DHT22;11773;52.570;13.052;2023-08-07T01:46:06;17.60;99.90
23207;DHT22;11773;52.570;13.052;2023-08-07T01:48:36;17.60;99.90
23207;DHT22;11773;52.570;13.052;2023-08-07T01:51:05;17.50;99.90
23207;DHT22;11773;52.570;13.052;2023-08-07T01:53:35;17.40;99.90
23207;DHT22;11773;52.570;13.052;2023-08-07T01:56:05;17.40;99.90
23207;DHT22;11773;52.570;13.052;2023-08-07T01:58:34;17.30;99.90
23207;DHT22;11773;52.570;13.052;2023-08-07T02:01:04;17.20;99.90
23207;DHT22;11773;52.570;13.052;2023-08-07T02:03:33;17.00;99.90
23207;DHT22;11773;52.570;13.052;2023-08-07T02:06:03;16.80;99.90
23207;DHT22;11773;52.570;13.052;2023-08-07T02:08:33;16.90;99.90
23207;DHT22;11773;52.570;13.052;2023-08-07T02:11:02;17.00;99.90
23207;DHT22;11773;52.570;13.052;2023-08-07T02:13:32;16.90;99.90
23207;DHT22;11773;52.570;13.052;2023-08-07T02:16:02;16.70;99.90
23207;DHT22;11773;52.570;13.052;2023-08-07T02:18:31;16.80;99.90
23207;DHT22;11773;52.570;13.052;2023-08-07T02:21:01;16.90;99.90
23207;DHT22;11773;52.570;13.052;2023-08-07T02:23:31;16.80;99.90
23207;DHT22;11773;52.570;13.052;2023-08-07T02:26:02;16.90;99.90
23207;DHT22;11773;52.570;13.052;2023-08-07T02:28:31;16.90;99.90
23207;DHT22;11773;52.570;13.052;2023-08-07T02:31:02;16.80;99.90
23207;DHT22;11773;52.570;13.052;2023-08-07T02:33:31;16.90;99.90
23207;DHT22;11773;52.570;13.052;2023-08-07T02:36:01;16.80;99.90
23207;DHT22;11773;52.570;13.052;2023-08-07T02:38:31;16.90;99.90
23207;DHT22;11773;52.570;13.052;2023-08-07T02:41:00;17.00;99.90
23207;DHT22;11773;52.570;13.052;2023-08-07T02:43:30;17.00;99.90
23207;DHT22;11773;52.570;13.052;2023-08-07T02:46:01;16.90;99.90
23207;DHT22;11773;52.570;13.052;2023-08-07T02:48:31;16.80;99.90
23207;DHT22;11773;52.570;13.052;2023-08-07T02:51:01;16.90;99.90
23207;DHT22;11773;52.570;13.052;2023-08-07T02:53:30;16.80;99.90
23207;DHT22;11773;52.570;13.052;2023-08-07T02:56:00;16.80;99.90
23207;DHT22;11773;52.570;13.052;2023-08-07T02:58:29;16.90;99.90
23207;DHT22;11773;52.570;13.052;2023-08-07T03:01:03;17.00;99.90
23207;DHT22;11773;52.570;13.052;2023-08-07T03:03:35;17.00;99.90
23207;DHT22;11773;52.570;13.052;2023-08-07T03:06:05;17.00;99.90
23207;DHT22;11773;52.570;13.052;2023-08-07T03:08:34;17.00;99.90
23207;DHT22;11773;52.570;13.052;2023-08-07T03:11:04;17.10;99.90
23207;DHT22;11773;52.570;13.052;2023-08-07T03:13:33;17.00;99.90
23207;DHT22;11773;52.570;13.052;2023-08-07T03:16:05;17.00;99.90
23207;DHT22;11773;52.570;13.052;2023-08-07T03:18:36;17.10;99.90
23207;DHT22;11773;52.570;13.052;2023-08-07T03:21:06;17.00;99.90
23207;DHT22;11773;52.570;13.052;2023-08-07T03:23:35;16.90;99.90
23207;DHT22;11773;52.570;13.052;2023-08-07T03:26:09;16.90;99.90
23207;DHT22;11773;52.570;13.052;2023-08-07T03:28:42;16.90;99.90
23207;DHT22;11773;52.570;13.052;2023-08-07T03:31:13;16.90;99.90
23207;DHT22;11773;52.570;13.052;2023-08-07T03:33:43;16.80;99.90
23207;DHT22;11773;52.570;13.052;2023-08-07T03:36:13;17.00;99.90
23207;DHT22;11773;52.570;13.052;2023-08-07T03:38:42;17.00;99.90
23207;DHT22;11773;52.570;13.052;2023-08-07T03:41:12;16.90;99.90
23207;DHT22;11773;52.570;13.052;2023-08-07T03:43:41;16.80;99.90
23207;DHT22;11773;52.570;13.052;2023-08-07T03:46:11;16.80;99.90
23207;DHT22;11773;52.570;13.052;2023-08-07T03:48:41;16.80;99.90
23207;DHT22;11773;52.570;13.052;2023-08-07T03:51:11;16.80;99.90
23207;DHT22;11773;52.570;13.052;2023-08-07T03:53:42;16.90;99.90
23207;DHT22;11773;52.570;13.052;2023-08-07T03:56:12;16.80;99.90
23207;DHT22;11773;52.570;13.052;2023-08-07T03:58:42;16.80;99.90
23207;DHT22;11773;52.570;13.052;2023-08-07T04:01:11;16.70;99.90
23207;DHT22;11773;52.570;13.052;2023-08-07T04:03:41;16.80;99.90
23207;DHT22;11773;52.570;13.052;2023-08-07T04:06:11;16.80;99.90
23207;DHT22;11773;52.570;13.052;2023-08-07T04:08:44;17.00;99.90
23207;DHT22;11773;52.570;13.052;2023-08-07T04:11:14;16.80;99.90
23207;DHT22;11773;52.570;13.052;2023-08-07T04:13:44;16.90;99.90
23207;DHT22;11773;52.570;13.052;2023-08-07T04:16:14;16.90;99.90
23207;DHT22;11773;52.570;13.052;2023-08-07T04:18:44;16.90;99.90
23207;DHT22;11773;52.570;13.052;2023-08-07T04:21:14;16.80;99.90
23207;DHT22;11773;52.570;13.052;2023-08-07T04:23:43;16.90;99.90
23207;DHT22;11773;52.570;13.052;2023-08-07T04:26:13;16.90;99.90
23207;DHT22;11773;52.570;13.052;2023-08-07T04:28:43;16.80;99.90
23207;DHT22;11773;52.570;13.052;2023-08-07T04:31:12;16.80;99.90
23207;DHT22;11773;52.570;13.052;2023-08-07T04:33:42;16.60;99.90
23207;DHT22;11773;52.570;13.052;2023-08-07T04:36:12;16.80;99.90
23207;DHT22;11773;52.570;13.052;2023-08-07T04:38:41;16.80;99.90
23207;DHT22;11773;52.570;13.052;2023-08-07T04:41:11;16.80;99.90
23207;DHT22;11773;52.570;13.052;2023-08-07T04:43:40;16.70;99.90
23207;DHT22;11773;52.570;13.052;2023-08-07T04:46:14;16.60;99.90
23207;DHT22;11773;52.570;13.052;2023-08-07T04:48:43;16.70;99.90
23207;DHT22;11773;52.570;13.052;2023-08-07T04:51:13;16.50;99.90
23207;DHT22;11773;52.570;13.052;2023-08-07T04:53:43;16.70;99.90
23207;DHT22;11773;52.570;13.052;2023-08-07T04:56:13;16.70;99.90
23207;DHT22;11773;52.570;13.052;2023-08-07T04:58:42;16.80;99.90
23207;DHT22;11773;52.570;13.052;2023-08-07T05:01:12;16.60;99.90
23207;DHT22;11773;52.570;13.052;2023-08-07T05:03:41;16.60;99.90
23207;DHT22;11773;52.570;13.052;2023-08-07T05:06:11;16.70;99.90
23207;DHT22;11773;52.570;13.052;2023-08-07T05:08:41;16.70;99.90
23207;DHT22;11773;52.570;13.052;2023-08-07T05:11:10;16.70;99.90
23207;DHT22;11773;52.570;13.052;2023-08-07T05:13:40;16.90;99.90
23207;DHT22;11773;52.570;13.052;2023-08-07T05:16:10;17.00;99.90
23207;DHT22;11773;52.570;13.052;2023-08-07T05:18:39;17.00;99.90
23207;DHT22;11773;52.570;13.052;2023-08-07T05:21:09;16.80;99.90
23207;DHT22;11773;52.570;13.052;2023-08-07T05:23:39;16.90;99.90
23207;DHT22;11773;52.570;13.052;2023-08-07T05:26:09;16.90;99.90
23207;DHT22;11773;52.570;13.052;2023-08-07T05:28:39;16.90;99.90
23207;DHT22;11773;52.570;13.052;2023-08-07T05:31:08;17.00;99.90
23207;DHT22;11773;52.570;13.052;2023-08-07T05:33:38;17.10;99.90
23207;DHT22;11773;52.570;13.052;2023-08-07T05:36:08;17.40;99.90
23207;DHT22;11773;52.570;13.052;2023-08-07T05:38:37;17.50;99.90
23207;DHT22;11773;52.570;13.052;2023-08-07T05:41:08;17.80;99.90
23207;DHT22;11773;52.570;13.052;2023-08-07T05:43:38;18.00;99.90
23207;DHT22;11773;52.570;13.052;2023-08-07T05:46:08;18.10;99.90
23207;DHT22;11773;52.570;13.052;2023-08-07T05:48:38;18.30;99.90
23207;DHT22;11773;52.570;13.052;2023-08-07T05:51:07;18.30;99.90
23207;DHT22;11773;52.570;13.052;2023-08-07T05:53:37;18.60;99.90
23207;DHT22;11773;52.570;13.052;2023-08-07T05:56:06;18.90;99.90
23207;DHT22;11773;52.570;13.052;2023-08-07T05:58:36;19.10;99.90
23207;DHT22;11773;52.570;13.052;2023-08-07T06:01:06;19.00;99.90
23207;DHT22;11773;52.570;13.052;2023-08-07T06:03:35;18.90;99.90
23207;DHT22;11773;52.570;13.052;2023-08-07T06:06:05;19.00;99.90
23207;DHT22;11773;52.570;13.052;2023-08-07T06:08:35;19.20;99.90
23207;DHT22;11773;52.570;13.052;2023-08-07T06:11:05;19.20;99.90
23207;DHT22;11773;52.570;13.052;2023-08-07T06:13:35;19.10;99.90
23207;DHT22;11773;52.570;13.052;2023-08-07T06:16:05;19.00;99.90
23207;DHT22;11773;52.570;13.052;2023-08-07T06:18:35;18.70;99.90
23207;DHT22;11773;52.570;13.052;2023-08-07T06:21:05;18.90;99.90
23207;DHT22;11773;52.570;13.052;2023-08-07T06:23:34;19.20;99.90
23207;DHT22;11773;52.570;13.052;2023-08-07T06:26:04;19.10;99.90
23207;DHT22;11773;52.570;13.052;2023-08-07T06:28:35;19.00;99.90
23207;DHT22;11773;52.570;13.052;2023-08-07T06:31:07;18.90;99.90
23207;DHT22;11773;52.570;13.052;2023-08-07T06:33:37;18.80;99.90
23207;DHT22;11773;52.570;13.052;2023-08-07T06:36:07;18.70;99.90
23207;DHT22;11773;52.570;13.052;2023-08-07T06:38:37;18.90;99.90
23207;DHT22;11773;52.570;13.052;2023-08-07T06:41:07;18.70;99.90
23207;DHT22;11773;52.570;13.052;2023-08-07T06:43:37;18.80;99.90
23207;DHT22;11773;52.570;13.052;2023-08-07T06:46:06;18.70;99.90
23207;DHT22;11773;52.570;13.052;2023-08-07T06:48:36;18.70;99.90
23207;DHT22;11773;52.570;13.052;2023-08-07T06:51:05;18.80;99.90
23207;DHT22;11773;52.570;13.052;2023-08-07T06:53:35;18.60;99.90
23207;DHT22;11773;52.570;13.052;2023-08-07T06:56:04;18.70;99.90
23207;DHT22;11773;52.570;13.052;2023-08-07T06:58:34;18.70;99.90
23207;DHT22;11773;52.570;13.052;2023-08-07T07:01:03;18.90;99.90
23207;DHT22;11773;52.570;13.052;2023-08-07T07:03:33;18.90;99.90
23207;DHT22;11773;52.570;13.052;2023-08-07T07:06:03;19.00;99.90
23207;DHT22;11773;52.570;13.052;2023-08-07T07:08:33;18.90;99.90
23207;DHT22;11773;52.570;13.052;2023-08-07T07:11:02;19.10;99.90
23207;DHT22;11773;52.570;13.052;2023-08-07T07:13:32;19.20;99.90
23207;DHT22;11773;52.570;13.052;2023-08-07T07:16:02;19.50;99.90
23207;DHT22;11773;52.570;13.052;2023-08-07T07:18:32;19.50;99.90
23207;DHT22;11773;52.570;13.052;2023-08-07T07:21:02;19.60;99.90
23207;DHT22;11773;52.570;13.052;2023-08-07T07:23:32;19.60;99.90
23207;DHT22;11773;52.570;13.052;2023-08-07T07:26:02;19.40;99.90
23207;DHT22;11773;52.570;13.052;2023-08-07T07:28:31;19.30;99.90
23207;DHT22;11773;52.570;13.052;2023-08-07T07:31:01;19.20;99.90
23207;DHT22;11773;52.570;13.052;2023-08-07T07:33:31;19.30;99.90
23207;DHT22;11773;52.570;13.052;2023-08-07T07:36:03;19.30;99.90
23207;DHT22;11773;52.570;13.052;2023-08-07T07:38:34;19.50;99.90
23207;DHT22;11773;52.570;13.052;2023-08-07T07:41:03;19.30;99.90
23207;DHT22;11773;52.570;13.052;2023-08-07T07:43:34;19.30;99.90
23207;DHT22;11773;52.570;13.052;2023-08-07T07:46:04;19.20;99.90
23207;DHT22;11773;52.570;13.052;2023-08-07T07:48:34;19.30;99.90
23207;DHT22;11773;52.570;13.052;2023-08-07T07:51:04;19.40;99.90
23207;DHT22;11773;52.570;13.052;2023-08-07T07:53:34;19.60;99.90
23207;DHT22;11773;52.570;13.052;2023-08-07T07:56:03;19.50;99.90
23207;DHT22;11773;52.570;13.052;2023-08-07T07:58:33;19.40;99.90
23207;DHT22;11773;52.570;13.052;2023-08-07T08:01:03;19.50;99.90
23207;DHT22;11773;52.570;13.052;2023-08-07T08:03:32;19.50;99.90
23207;DHT22;11773;52.570;13.052;2023-08-07T08:06:02;19.70;99.90
23207;DHT22;11773;52.570;13.052;2023-08-07T08:08:32;19.60;99.90
23207;DHT22;11773;52.570;13.052;2023-08-07T08:11:01;19.70;99.90
23207;DHT22;11773;52.570;13.052;2023-08-07T08:13:31;19.90;99.90
23207;DHT22;11773;52.570;13.052;2023-08-07T08:16:01;19.90;99.90
23207;DHT22;11773;52.570;13.052;2023-08-07T08:18:31;19.80;99.90
23207;DHT22;11773;52.570;13.052;2023-08-07T08:21:00;19.90;99.90
23207;DHT22;11773;52.570;13.052;2023-08-07T08:23:30;19.90;99.90
23207;DHT22;11773;52.570;13.052;2023-08-07T08:26:00;19.60;99.90
23207;DHT22;11773;52.570;13.052;2023-08-07T08:28:30;19.60;99.90
23207;DHT22;11773;52.570;13.052;2023-08-07T08:31:00;19.80;99.90
23207;DHT22;11773;52.570;13.052;2023-08-07T08:33:30;20.10;99.90
23207;DHT22;11773;52.570;13.052;2023-08-07T08:35:59;20.30;99.90
23207;DHT22;11773;52.570;13.052;2023-08-07T08:38:29;20.30;99.90
23207;DHT22;11773;52.570;13.052;2023-08-07T08:41:02;20.30;99.90
23207;DHT22;11773;52.570;13.052;2023-08-07T08:43:34;20.30;99.90
23207;DHT22;11773;52.570;13.052;2023-08-07T08:46:05;20.40;99.90
23207;DHT22;11773;52.570;13.052;2023-08-07T08:48:38;20.00;99.90
23207;DHT22;11773;52.570;13.052;2023-08-07T08:51:09;20.00;99.90
23207;DHT22;11773;52.570;13.052;2023-08-07T08:53:40;20.00;99.90
23207;DHT22;11773;52.570;13.052;2023-08-07T08:56:11;20.00;99.90
23207;DHT22;11773;52.570;13.052;2023-08-07T08:58:41;20.10;99.90
23207;DHT22;11773;52.570;13.052;2023-08-07T09:01:12;19.90;99.90
23207;DHT22;11773;52.570;13.052;2023-08-07T09:03:41;20.20;99.90
23207;DHT22;11773;52.570;13.052;2023-08-07T09:06:13;20.40;99.90
23207;DHT22;11773;52.570;13.052;2023-08-07T09:08:43;20.40;99.90
23207;DHT22;11773;52.570;13.052;2023-08-07T09:11:14;20.50;99.90
23207;DHT22;11773;52.570;13.052;2023-08-07T09:13:45;20.30;99.90
23207;DHT22;11773;52.570;13.052;2023-08-07T09:16:17;20.60;99.90
23207;DHT22;11773;52.570;13.052;2023-08-07T09:18:47;20.70;99.90
23207;DHT22;11773;52.570;13.052;2023-08-07T09:21:17;20.60;99.90
23207;DHT22;11773;52.570;13.052;2023-08-07T09:23:47;20.70;99.90
23207;DHT22;11773;52.570;13.052;2023-08-07T09:26:23;20.60;99.90
23207;DHT22;11773;52.570;13.052;2023-08-07T09:28:52;20.50;99.90
23207;DHT22;11773;52.570;13.052;2023-08-07T09:31:23;20.70;99.90
23207;DHT22;11773;52.570;13.052;2023-08-07T09:34:02;20.60;99.90
23207;DHT22;11773;52.570;13.052;2023-08-07T09:36:34;20.80;99.90
23207;DHT22;11773;52.570;13.052;2023-08-07T09:39:04;20.60;99.90
23207;DHT22;11773;52.570;13.052;2023-08-07T09:41:34;20.60;99.90
23207;DHT22;11773;52.570;13.052;2023-08-07T09:44:10;20.70;99.90
23207;DHT22;11773;52.570;13.052;2023-08-07T09:46:43;20.70;99.90
23207;DHT22;11773;52.570;13.052;2023-08-07T09:49:13;20.80;99.90
23207;DHT22;11773;52.570;13.052;2023-08-07T09:51:46;20.80;99.90
23207;DHT22;11773;52.570;13.052;2023-08-07T09:54:18;20.70;99.90
23207;DHT22;11773;52.570;13.052;2023-08-07T09:56:47;20.50;99.90
23207;DHT22;11773;52.570;13.052;2023-08-07T09:59:17;20.50;99.90
23207;DHT22;11773;52.570;13.052;2023-08-07T10:01:47;20.80;99.90
23207;DHT22;11773;52.570;13.052;2023-08-07T10:04:17;20.70;99.90
23207;DHT22;11773;52.570;13.052;2023-08-07T10:06:47;20.60;99.90
23207;DHT22;11773;52.570;13.052;2023-08-07T10:09:17;20.60;99.90
23207;DHT22;11773;52.570;13.052;2023-08-07T10:11:48;20.50;99.90
23207;DHT22;11773;52.570;13.052;2023-08-07T10:14:18;20.80;99.90
23207;DHT22;11773;52.570;13.052;2023-08-07T10:16:49;20.90;99.90
23207;DHT22;11773;52.570;13.052;2023-08-07T10:19:19;20.60;99.90
23207;DHT22;11773;52.570;13.052;2023-08-07T10:21:49;20.60;99.90
23207;DHT22;11773;52.570;13.052;2023-08-07T10:24:21;20.60;99.90
23207;DHT22;11773;52.570;13.052;2023-08-07T10:26:53;20.60;99.90
23207;DHT22;11773;52.570;13.052;2023-08-07T10:29:25;20.60;99.90
23207;DHT22;11773;52.570;13.052;2023-08-07T10:31:56;20.30;99.90
23207;DHT22;11773;52.570;13.052;2023-08-07T10:34:29;20.40;99.90
23207;DHT22;11773;52.570;13.052;2023-08-07T10:37:00;20.40;99.90
23207;DHT22;11773;52.570;13.052;2023-08-07T10:39:29;20.30;99.90
23207;DHT22;11773;52.570;13.052;2023-08-07T10:41:59;20.30;99.90
23207;DHT22;11773;52.570;13.052;2023-08-07T10:44:31;20.20;99.90
23207;DHT22;11773;52.570;13.052;2023-08-07T10:47:01;20.20;99.90
23207;DHT22;11773;52.570;13.052;2023-08-07T10:52:11;20.10;99.90
23207;DHT22;11773;52.570;13.052;2023-08-07T10:57:20;19.60;99.90
23207;DHT22;11773;52.570;13.052;2023-08-07T10:59:51;19.50;99.90
23207;DHT22;11773;52.570;13.052;2023-08-07T11:02:30;19.70;99.90
23207;DHT22;11773;52.570;13.052;2023-08-07T11:05:03;20.00;99.90
23207;DHT22;11773;52.570;13.052;2023-08-07T11:07:33;20.00;99.90
23207;DHT22;11773;52.570;13.052;2023-08-07T11:10:05;19.80;99.90
23207;DHT22;11773;52.570;13.052;2023-08-07T11:12:35;19.90;99.90
23207;DHT22;11773;52.570;13.052;2023-08-07T11:15:06;19.80;99.90
23207;DHT22;11773;52.570;13.052;2023-08-07T11:17:37;19.90;99.90
23207;DHT22;11773;52.570;13.052;2023-08-07T11:20:09;20.20;99.90
23207;DHT22;11773;52.570;13.052;2023-08-07T11:22:39;20.00;99.90
23207;DHT22;11773;52.570;13.052;2023-08-07T11:25:09;20.20;99.90
23207;DHT22;11773;52.570;13.052;2023-08-07T11:27:39;20.20;99.90
23207;DHT22;11773;52.570;13.052;2023-08-07T11:30:10;20.40;99.90
23207;DHT22;11773;52.570;13.052;2023-08-07T11:32:41;20.60;99.90
23207;DHT22;11773;52.570;13.052;2023-08-07T11:35:11;20.80;99.90
23207;DHT22;11773;52.570;13.052;2023-08-07T11:37:48;20.80;99.90
23207;DHT22;11773;52.570;13.052;2023-08-07T11:40:18;20.90;99.90
23207;DHT22;11773;52.570;13.052;2023-08-07T11:42:48;21.00;99.90
23207;DHT22;11773;52.570;13.052;2023-08-07T11:45:17;21.40;99.90
23207;DHT22;11773;52.570;13.052;2023-08-07T11:47:47;21.60;99.90
23207;DHT22;11773;52.570;13.052;2023-08-07T11:50:17;21.40;99.90
23207;DHT22;11773;52.570;13.052;2023-08-07T11:52:46;21.30;99.90
23207;DHT22;11773;52.570;13.052;2023-08-07T11:55:17;21.20;99.90
23207;DHT22;11773;52.570;13.052;2023-08-07T11:57:47;21.20;99.90
23207;DHT22;11773;52.570;13.052;2023-08-07T12:00:16;21.30;99.90
23207;DHT22;11773;52.570;13.052;2023-08-07T12:02:47;21.40;99.90
23207;DHT22;11773;52.570;13.052;2023-08-07T12:05:17;21.30;99.90
23207;DHT22;11773;52.570;13.052;2023-08-07T12:07:47;21.60;99.90
23207;DHT22;11773;52.570;13.052;2023-08-07T12:10:17;21.40;99.90
23207;DHT22;11773;52.570;13.052;2023-08-07T12:12:47;21.20;99.90
23207;DHT22;11773;52.570;13.052;2023-08-07T12:15:17;21.50;99.90
23207;DHT22;11773;52.570;13.052;2023-08-07T12:17:46;21.40;99.90
23207;DHT22;11773;52.570;13.052;2023-08-07T12:20:16;21.20;99.90
23207;DHT22;11773;52.570;13.052;2023-08-07T12:22:46;21.30;99.90
23207;DHT22;11773;52.570;13.052;2023-08-07T12:25:17;21.00;99.90
23207;DHT22;11773;52.570;13.052;2023-08-07T12:27:47;20.90;99.90
23207;DHT22;11773;52.570;13.052;2023-08-07T12:30:16;20.70;99.90
23207;DHT22;11773;52.570;13.052;2023-08-07T12:32:46;20.80;99.90
23207;DHT22;11773;52.570;13.052;2023-08-07T12:35:16;20.80;99.90
23207;DHT22;11773;52.570;13.052;2023-08-07T12:37:45;20.80;99.90
23207;DHT22;11773;52.570;13.052;2023-08-07T12:40:15;20.70;99.90
23207;DHT22;11773;52.570;13.052;2023-08-07T12:42:48;20.70;99.90
23207;DHT22;11773;52.570;13.052;2023-08-07T12:45:18;20.70;99.90
23207;DHT22;11773;52.570;13.052;2023-08-07T12:47:50;21.00;99.90
23207;DHT22;11773;52.570;13.052;2023-08-07T12:50:19;21.20;99.90
23207;DHT22;11773;52.570;13.052;2023-08-07T12:52:49;21.00;99.90
23207;DHT22;11773;52.570;13.052;2023-08-07T12:55:19;21.20;99.90
23207;DHT22;11773;52.570;13.052;2023-08-07T12:57:48;21.10;99.90
23207;DHT22;11773;52.570;13.052;2023-08-07T13:00:18;21.00;99.90
23207;DHT22;11773;52.570;13.052;2023-08-07T13:02:50;21.20;99.90
23207;DHT22;11773;52.570;13.052;2023-08-07T13:05:21;21.20;99.90
23207;DHT22;11773;52.570;13.052;2023-08-07T13:07:51;21.00;99.90
23207;DHT22;11773;52.570;13.052;2023-08-07T13:10:25;21.20;99.90
23207;DHT22;11773;52.570;13.052;2023-08-07T13:12:59;21.10;99.90
23207;DHT22;11773;52.570;13.052;2023-08-07T13:15:29;21.10;99.90
23207;DHT22;11773;52.570;13.052;2023-08-07T13:17:58;21.20;99.90
23207;DHT22;11773;52.570;13.052;2023-08-07T13:20:28;21.40;99.90
23207;DHT22;11773;52.570;13.052;2023-08-07T13:23:00;21.50;99.90
23207;DHT22;11773;52.570;13.052;2023-08-07T13:25:32;21.40;99.90
23207;DHT22;11773;52.570;13.052;2023-08-07T13:28:01;21.40;99.90
23207;DHT22;11773;52.570;13.052;2023-08-07T13:30:33;21.30;99.90
23207;DHT22;11773;52.570;13.052;2023-08-07T13:33:04;21.40;99.90
23207;DHT22;11773;52.570;13.052;2023-08-07T13:35:34;21.40;99.90
23207;DHT22;11773;52.570;13.052;2023-08-07T13:38:04;21.30;99.90
23207;DHT22;11773;52.570;13.052;2023-08-07T13:40:35;21.20;99.90
23207;DHT22;11773;52.570;13.052;2023-08-07T13:43:05;21.20;99.90
23207;DHT22;11773;52.570;13.052;2023-08-07T13:45:38;21.20;99.90
23207;DHT22;11773;52.570;13.052;2023-08-07T13:48:07;21.10;99.90
23207;DHT22;11773;52.570;13.052;2023-08-07T13:50:37;21.10;99.90
23207;DHT22;11773;52.570;13.052;2023-08-07T13:53:08;21.10;99.90
23207;DHT22;11773;52.570;13.052;2023-08-07T13:55:39;21.30;99.90
23207;DHT22;11773;52.570;13.052;2023-08-07T13:58:09;21.10;99.90
23207;DHT22;11773;52.570;13.052;2023-08-07T14:00:38;21.00;99.90
23207;DHT22;11773;52.570;13.052;2023-08-07T14:03:09;21.10;99.90
23207;DHT22;11773;52.570;13.052;2023-08-07T14:05:41;21.20;99.90
23207;DHT22;11773;52.570;13.052;2023-08-07T14:08:10;21.20;99.90
23207;DHT22;11773;52.570;13.052;2023-08-07T14:10:40;21.00;99.90
23207;DHT22;11773;52.570;13.052;2023-08-07T14:13:10;21.20;99.90
23207;DHT22;11773;52.570;13.052;2023-08-07T14:15:40;21.00;99.90
23207;DHT22;11773;52.570;13.052;2023-08-07T14:18:09;21.00;99.90
23207;DHT22;11773;52.570;13.052;2023-08-07T14:20:41;20.80;99.90
23207;DHT22;11773;52.570;13.052;2023-08-07T14:23:12;21.00;99.90
23207;DHT22;11773;52.570;13.052;2023-08-07T14:25:43;21.10;99.90
23207;DHT22;11773;52.570;13.052;2023-08-07T14:28:15;21.00;99.90
23207;DHT22;11773;52.570;13.052;2023-08-07T14:30:44;21.00;99.90
23207;DHT22;11773;52.570;13.052;2023-08-07T14:33:14;21.10;99.90
23207;DHT22;11773;52.570;13.052;2023-08-07T14:35:44;21.10;99.90
23207;DHT22;11773;52.570;13.052;2023-08-07T14:38:14;21.20;99.90
23207;DHT22;11773;52.570;13.052;2023-08-07T14:40:43;20.80;99.90
23207;DHT22;11773;52.570;13.052;2023-08-07T14:43:13;20.90;99.90
23207;DHT22;11773;52.570;13.052;2023-08-07T14:45:43;20.80;99.90
23207;DHT22;11773;52.570;13.052;2023-08-07T14:48:14;20.70;99.90
23207;DHT22;11773;52.570;13.052;2023-08-07T14:50:44;20.70;99.90
23207;DHT22;11773;52.570;13.052;2023-08-07T14:53:13;20.80;99.90
23207;DHT22;11773;52.570;13.052;2023-08-07T14:55:44;20.90;99.90
23207;DHT22;11773;52.570;13.052;2023-08-07T14:58:14;20.90;99.90
23207;DHT22;11773;52.570;13.052;2023-08-07T15:00:44;20.90;99.90
23207;DHT22;11773;52.570;13.052;2023-08-07T15:03:14;20.90;99.90
23207;DHT22;11773;52.570;13.052;2023-08-07T15:05:43;21.10;99.90
23207;DHT22;11773;52.570;13.052;2023-08-07T15:08:13;21.20;99.90
23207;DHT22;11773;52.570;13.052;2023-08-07T15:10:42;21.10;99.90
23207;DHT22;11773;52.570;13.052;2023-08-07T15:13:12;21.10;99.90
23207;DHT22;11773;52.570;13.052;2023-08-07T15:15:42;21.00;99.90
23207;DHT22;11773;52.570;13.052;2023-08-07T15:18:12;20.90;99.90
23207;DHT22;11773;52.570;13.052;2023-08-07T15:20:42;21.10;99.90
23207;DHT22;11773;52.570;13.052;2023-08-07T15:23:12;20.90;99.90
23207;DHT22;11773;52.570;13.052;2023-08-07T15:25:42;20.90;99.90
23207;DHT22;11773;52.570;13.052;2023-08-07T15:28:12;20.80;99.90
23207;DHT22;11773;52.570;13.052;2023-08-07T15:30:49;20.80;99.90
23207;DHT22;11773;52.570;13.052;2023-08-07T15:33:19;20.70;99.90
23207;DHT22;11773;52.570;13.052;2023-08-07T15:35:55;20.80;99.90
23207;DHT22;11773;52.570;13.052;2023-08-07T15:38:26;20.50;99.90